sensor_id;sensor_type;location;lat;lon;timestamp;P1;durP1;ratioP1;P2;durP2;ratioP2
1593;SDS011;790;47.000;16.084;2023-04-16T00:00:49;1.73;;;1.50;;
1593;SDS011;790;47.000;16.084;2023-04-16T00:03:17;1.20;;;1.20;;
1593;SDS011;790;47.000;16.084;2023-04-16T00:05:44;1.57;;;1.13;;
1593;SDS011;790;47.000;16.084;2023-04-16T00:08:11;1.30;;;1.30;;
1593;SDS011;790;47.000;16.084;2023-04-16T00:10:40;1.07;;;1.07;;
1593;SDS011;790;47.000;16.084;2023-04-16T00:13:07;2.00;;;1.30;;
1593;SDS011;790;47.000;16.084;2023-04-16T00:15:34;1.87;;;1.17;;
1593;SDS011;790;47.000;16.084;2023-04-16T00:18:01;2.07;;;1.60;;
1593;SDS011;790;47.000;16.084;2023-04-16T00:20:28;3.67;;;2.23;;
1593;SDS011;790;47.000;16.084;2023-04-16T00:22:56;1.60;;;1.60;;
1593;SDS011;790;47.000;16.084;2023-04-16T00:25:23;2.33;;;1.30;;
1593;SDS011;790;47.000;16.084;2023-04-16T00:27:52;1.40;;;1.30;;
1593;SDS011;790;47.000;16.084;2023-04-16T00:30:20;1.50;;;1.50;;
1593;SDS011;790;47.000;16.084;2023-04-16T00:32:48;2.13;;;1.50;;
1593;SDS011;790;47.000;16.084;2023-04-16T00:35:15;1.20;;;1.20;;
1593;SDS011;790;47.000;16.084;2023-04-16T00:37:42;3.33;;;1.30;;
1593;SDS011;790;47.000;16.084;2023-04-16T00:40:10;1.50;;;1.40;;
1593;SDS011;790;47.000;16.084;2023-04-16T00:42:37;1.33;;;1.33;;
1593;SDS011;790;47.000;16.084;2023-04-16T00:45:07;1.30;;;1.30;;
1593;SDS011;790;47.000;16.084;2023-04-16T00:47:35;1.10;;;1.10;;
1593;SDS011;790;47.000;16.084;2023-04-16T00:50:03;3.70;;;1.67;;
1593;SDS011;790;47.000;16.084;2023-04-16T00:52:31;1.50;;;1.40;;
1593;SDS011;790;47.000;16.084;2023-04-16T00:54:59;1.40;;;1.40;;
1593;SDS011;790;47.000;16.084;2023-04-16T00:57:27;1.37;;;1.37;;
1593;SDS011;790;47.000;16.084;2023-04-16T00:59:54;1.50;;;1.50;;
1593;SDS011;790;47.000;16.084;2023-04-16T01:02:24;1.97;;;1.87;;
1593;SDS011;790;47.000;16.084;2023-04-16T01:04:52;1.70;;;1.60;;
1593;SDS011;790;47.000;16.084;2023-04-16T01:07:19;4.80;;;1.60;;
1593;SDS011;790;47.000;16.084;2023-04-16T01:09:46;1.97;;;1.87;;
1593;SDS011;790;47.000;16.084;2023-04-16T01:12:13;2.77;;;2.37;;
1593;SDS011;790;47.000;16.084;2023-04-16T01:14:40;2.70;;;2.50;;
1593;SDS011;790;47.000;16.084;2023-04-16T01:17:07;2.30;;;2.13;;
1593;SDS011;790;47.000;16.084;2023-04-16T01:19:36;3.03;;;2.60;;
1593;SDS011;790;47.000;16.084;2023-04-16T01:22:05;2.30;;;2.10;;
1593;SDS011;790;47.000;16.084;2023-04-16T01:24:32;2.97;;;2.60;;
1593;SDS011;790;47.000;16.084;2023-04-16T01:27:00;2.83;;;2.73;;
1593;SDS011;790;47.000;16.084;2023-04-16T01:29:27;2.90;;;2.70;;
1593;SDS011;790;47.000;16.084;2023-04-16T01:31:54;2.50;;;2.40;;
1593;SDS011;790;47.000;16.084;2023-04-16T01:34:22;2.73;;;2.63;;
1593;SDS011;790;47.000;16.084;2023-04-16T01:36:49;2.60;;;2.50;;
1593;SDS011;790;47.000;16.084;2023-04-16T01:39:17;2.43;;;2.27;;
1593;SDS011;790;47.000;16.084;2023-04-16T01:41:45;2.50;;;2.20;;
1593;SDS011;790;47.000;16.084;2023-04-16T01:44:12;2.87;;;2.60;;
1593;SDS011;790;47.000;16.084;2023-04-16T01:46:39;2.30;;;2.20;;
1593;SDS011;790;47.000;16.084;2023-04-16T01:49:06;2.10;;;2.00;;
1593;SDS011;790;47.000;16.084;2023-04-16T01:51:34;2.47;;;2.30;;
1593;SDS011;790;47.000;16.084;2023-04-16T01:54:01;2.13;;;2.03;;
1593;SDS011;790;47.000;16.084;2023-04-16T01:56:30;2.50;;;2.40;;
1593;SDS011;790;47.000;16.084;2023-04-16T01:58:57;2.40;;;2.30;;
1593;SDS011;790;47.000;16.084;2023-04-16T02:01:24;2.50;;;2.30;;
1593;SDS011;790;47.000;16.084;2023-04-16T02:03:53;3.10;;;2.80;;
1593;SDS011;790;47.000;16.084;2023-04-16T02:06:20;3.10;;;2.90;;
1593;SDS011;790;47.000;16.084;2023-04-16T02:08:48;3.20;;;3.00;;
1593;SDS011;790;47.000;16.084;2023-04-16T02:11:15;2.83;;;2.50;;
1593;SDS011;790;47.000;16.084;2023-04-16T02:13:43;3.10;;;2.90;;
1593;SDS011;790;47.000;16.084;2023-04-16T02:16:11;3.53;;;3.27;;
1593;SDS011;790;47.000;16.084;2023-04-16T02:18:38;3.20;;;3.00;;
1593;SDS011;790;47.000;16.084;2023-04-16T02:21:06;3.10;;;2.90;;
1593;SDS011;790;47.000;16.084;2023-04-16T02:23:33;3.20;;;3.00;;
1593;SDS011;790;47.000;16.084;2023-04-16T02:26:01;2.97;;;2.80;;
1593;SDS011;790;47.000;16.084;2023-04-16T02:28:29;2.77;;;2.63;;
1593;SDS011;790;47.000;16.084;2023-04-16T02:30:57;3.30;;;3.00;;
1593;SDS011;790;47.000;16.084;2023-04-16T02:33:24;2.50;;;2.30;;
1593;SDS011;790;47.000;16.084;2023-04-16T02:35:52;3.10;;;3.00;;
1593;SDS011;790;47.000;16.084;2023-04-16T02:38:19;2.73;;;2.53;;
1593;SDS011;790;47.000;16.084;2023-04-16T02:40:47;3.23;;;3.03;;
1593;SDS011;790;47.000;16.084;2023-04-16T02:43:14;3.10;;;2.90;;
1593;SDS011;790;47.000;16.084;2023-04-16T02:45:41;3.60;;;3.40;;
1593;SDS011;790;47.000;16.084;2023-04-16T02:48:10;3.47;;;3.27;;
1593;SDS011;790;47.000;16.084;2023-04-16T02:50:37;3.27;;;3.07;;
1593;SDS011;790;47.000;16.084;2023-04-16T02:53:04;3.90;;;3.60;;
1593;SDS011;790;47.000;16.084;2023-04-16T02:55:32;3.70;;;3.50;;
1593;SDS011;790;47.000;16.084;2023-04-16T02:57:59;3.60;;;3.30;;
1593;SDS011;790;47.000;16.084;2023-04-16T03:00:26;3.77;;;3.57;;
1593;SDS011;790;47.000;16.084;2023-04-16T03:02:53;3.60;;;3.30;;
1593;SDS011;790;47.000;16.084;2023-04-16T03:05:21;3.47;;;3.27;;
1593;SDS011;790;47.000;16.084;2023-04-16T03:07:49;3.47;;;3.27;;
1593;SDS011;790;47.000;16.084;2023-04-16T03:10:20;3.10;;;2.83;;
1593;SDS011;790;47.000;16.084;2023-04-16T03:12:48;3.17;;;2.97;;
1593;SDS011;790;47.000;16.084;2023-04-16T03:15:15;3.33;;;3.13;;
1593;SDS011;790;47.000;16.084;2023-04-16T03:17:42;3.17;;;2.97;;
1593;SDS011;790;47.000;16.084;2023-04-16T03:20:10;5.87;;;3.70;;
1593;SDS011;790;47.000;16.084;2023-04-16T03:22:40;3.93;;;3.67;;
1593;SDS011;790;47.000;16.084;2023-04-16T03:25:07;3.47;;;3.27;;
1593;SDS011;790;47.000;16.084;2023-04-16T03:27:34;3.57;;;3.27;;
1593;SDS011;790;47.000;16.084;2023-04-16T03:30:03;3.27;;;3.07;;
1593;SDS011;790;47.000;16.084;2023-04-16T03:32:31;3.87;;;3.43;;
1593;SDS011;790;47.000;16.084;2023-04-16T03:34:58;3.47;;;3.20;;
1593;SDS011;790;47.000;16.084;2023-04-16T03:37:25;4.10;;;3.80;;
1593;SDS011;790;47.000;16.084;2023-04-16T03:39:55;3.33;;;3.10;;
1593;SDS011;790;47.000;16.084;2023-04-16T03:42:22;5.17;;;3.47;;
1593;SDS011;790;47.000;16.084;2023-04-16T03:44:50;3.77;;;3.50;;
1593;SDS011;790;47.000;16.084;2023-04-16T03:47:18;3.40;;;3.20;;
1593;SDS011;790;47.000;16.084;2023-04-16T03:49:45;4.27;;;3.97;;
1593;SDS011;790;47.000;16.084;2023-04-16T03:52:12;3.60;;;3.40;;
1593;SDS011;790;47.000;16.084;2023-04-16T03:54:40;3.80;;;3.60;;
1593;SDS011;790;47.000;16.084;2023-04-16T03:57:08;3.30;;;3.10;;
1593;SDS011;790;47.000;16.084;2023-04-16T03:59:35;3.80;;;3.60;;
1593;SDS011;790;47.000;16.084;2023-04-16T04:02:02;3.70;;;3.40;;
1593;SDS011;790;47.000;16.084;2023-04-16T04:04:29;3.30;;;3.10;;
1593;SDS011;790;47.000;16.084;2023-04-16T04:06:56;4.60;;;4.07;;
1593;SDS011;790;47.000;16.084;2023-04-16T04:09:24;4.43;;;4.13;;
1593;SDS011;790;47.000;16.084;2023-04-16T04:11:52;4.60;;;4.30;;
1593;SDS011;790;47.000;16.084;2023-04-16T04:14:20;4.93;;;4.57;;
1593;SDS011;790;47.000;16.084;2023-04-16T04:16:47;4.33;;;4.03;;
1593;SDS011;790;47.000;16.084;2023-04-16T04:19:14;4.50;;;4.20;;
1593;SDS011;790;47.000;16.084;2023-04-16T04:21:42;3.80;;;3.50;;
1593;SDS011;790;47.000;16.084;2023-04-16T04:24:09;3.73;;;3.53;;
1593;SDS011;790;47.000;16.084;2023-04-16T04:26:36;3.83;;;3.53;;
1593;SDS011;790;47.000;16.084;2023-04-16T04:29:03;3.57;;;3.27;;
1593;SDS011;790;47.000;16.084;2023-04-16T04:31:32;3.70;;;3.40;;
1593;SDS011;790;47.000;16.084;2023-04-16T04:33:59;3.70;;;3.50;;
1593;SDS011;790;47.000;16.084;2023-04-16T04:36:26;3.37;;;3.17;;
1593;SDS011;790;47.000;16.084;2023-04-16T04:38:53;3.40;;;3.20;;
1593;SDS011;790;47.000;16.084;2023-04-16T04:41:20;3.47;;;3.27;;
1593;SDS011;790;47.000;16.084;2023-04-16T04:43:47;5.87;;;3.03;;
1593;SDS011;790;47.000;16.084;2023-04-16T04:46:14;3.53;;;3.33;;
1593;SDS011;790;47.000;16.084;2023-04-16T04:48:43;3.40;;;3.20;;
1593;SDS011;790;47.000;16.084;2023-04-16T04:51:10;3.57;;;3.27;;
1593;SDS011;790;47.000;16.084;2023-04-16T04:53:37;3.63;;;3.43;;
1593;SDS011;790;47.000;16.084;2023-04-16T04:56:05;3.70;;;3.40;;
1593;SDS011;790;47.000;16.084;2023-04-16T04:58:32;3.60;;;3.40;;
1593;SDS011;790;47.000;16.084;2023-04-16T05:00:59;3.80;;;3.60;;
1593;SDS011;790;47.000;16.084;2023-04-16T05:03:27;4.07;;;3.77;;
1593;SDS011;790;47.000;16.084;2023-04-16T05:05:55;5.67;;;4.27;;
1593;SDS011;790;47.000;16.084;2023-04-16T05:08:22;4.53;;;4.13;;
1593;SDS011;790;47.000;16.084;2023-04-16T05:10:51;4.43;;;4.13;;
1593;SDS011;790;47.000;16.084;2023-04-16T05:13:18;5.03;;;4.63;;
1593;SDS011;790;47.000;16.084;2023-04-16T05:15:45;6.90;;;4.70;;
1593;SDS011;790;47.000;16.084;2023-04-16T05:18:12;4.90;;;4.60;;
1593;SDS011;790;47.000;16.084;2023-04-16T05:20:43;4.77;;;4.43;;
1593;SDS011;790;47.000;16.084;2023-04-16T05:23:11;4.63;;;4.33;;
1593;SDS011;790;47.000;16.084;2023-04-16T05:25:39;5.30;;;4.83;;
1593;SDS011;790;47.000;16.084;2023-04-16T05:28:07;5.30;;;4.90;;
1593;SDS011;790;47.000;16.084;2023-04-16T05:30:36;5.60;;;5.10;;
1593;SDS011;790;47.000;16.084;2023-04-16T05:33:03;9.27;;;8.37;;
1593;SDS011;790;47.000;16.084;2023-04-16T05:35:30;7.53;;;6.87;;
1593;SDS011;790;47.000;16.084;2023-04-16T05:37:58;6.53;;;5.93;;
1593;SDS011;790;47.000;16.084;2023-04-16T05:40:27;6.00;;;5.50;;
1593;SDS011;790;47.000;16.084;2023-04-16T05:42:54;6.43;;;5.83;;
1593;SDS011;790;47.000;16.084;2023-04-16T05:47:52;5.17;;;4.67;;
1593;SDS011;790;47.000;16.084;2023-04-16T05:50:19;4.30;;;4.10;;
1593;SDS011;790;47.000;16.084;2023-04-16T05:52:46;5.23;;;4.90;;
1593;SDS011;790;47.000;16.084;2023-04-16T05:55:13;4.13;;;3.93;;
1593;SDS011;790;47.000;16.084;2023-04-16T05:57:42;4.73;;;3.70;;
1593;SDS011;790;47.000;16.084;2023-04-16T06:00:10;3.97;;;3.77;;
1593;SDS011;790;47.000;16.084;2023-04-16T06:02:38;4.60;;;4.30;;
1593;SDS011;790;47.000;16.084;2023-04-16T06:05:05;4.00;;;3.60;;
1593;SDS011;790;47.000;16.084;2023-04-16T06:07:33;3.67;;;3.47;;
1593;SDS011;790;47.000;16.084;2023-04-16T06:10:00;3.87;;;3.67;;
1593;SDS011;790;47.000;16.084;2023-04-16T06:12:27;5.50;;;5.10;;
1593;SDS011;790;47.000;16.084;2023-04-16T06:14:56;4.60;;;3.67;;
1593;SDS011;790;47.000;16.084;2023-04-16T06:17:23;4.90;;;4.60;;
1593;SDS011;790;47.000;16.084;2023-04-16T06:19:51;4.23;;;3.83;;
1593;SDS011;790;47.000;16.084;2023-04-16T06:22:18;4.17;;;3.73;;
1593;SDS011;790;47.000;16.084;2023-04-16T06:24:45;3.70;;;3.50;;
1593;SDS011;790;47.000;16.084;2023-04-16T06:27:13;3.97;;;3.60;;
1593;SDS011;790;47.000;16.084;2023-04-16T06:29:40;5.13;;;4.80;;
1593;SDS011;790;47.000;16.084;2023-04-16T06:32:08;4.70;;;4.40;;
1593;SDS011;790;47.000;16.084;2023-04-16T06:34:36;4.37;;;4.07;;
1593;SDS011;790;47.000;16.084;2023-04-16T06:37:03;3.83;;;3.63;;
1593;SDS011;790;47.000;16.084;2023-04-16T06:39:30;3.47;;;3.27;;
1593;SDS011;790;47.000;16.084;2023-04-16T06:41:57;3.53;;;3.33;;
1593;SDS011;790;47.000;16.084;2023-04-16T06:44:25;3.40;;;3.10;;
1593;SDS011;790;47.000;16.084;2023-04-16T06:46:52;3.80;;;3.50;;
1593;SDS011;790;47.000;16.084;2023-04-16T06:49:21;3.87;;;3.67;;
1593;SDS011;790;47.000;16.084;2023-04-16T06:51:48;3.70;;;3.50;;
1593;SDS011;790;47.000;16.084;2023-04-16T06:54:16;3.13;;;2.90;;
1593;SDS011;790;47.000;16.084;2023-04-16T06:56:43;3.40;;;3.20;;
1593;SDS011;790;47.000;16.084;2023-04-16T06:59:11;3.40;;;3.20;;
1593;SDS011;790;47.000;16.084;2023-04-16T07:01:38;3.10;;;3.00;;
1593;SDS011;790;47.000;16.084;2023-04-16T07:04:05;11.40;;;9.60;;
1593;SDS011;790;47.000;16.084;2023-04-16T07:06:34;4.07;;;3.87;;
1593;SDS011;790;47.000;16.084;2023-04-16T07:09:01;3.70;;;3.50;;
1593;SDS011;790;47.000;16.084;2023-04-16T07:11:28;3.30;;;3.10;;
1593;SDS011;790;47.000;16.084;2023-04-16T07:13:55;4.20;;;3.60;;
1593;SDS011;790;47.000;16.084;2023-04-16T07:16:23;3.30;;;3.10;;
1593;SDS011;790;47.000;16.084;2023-04-16T07:18:50;3.73;;;3.43;;
1593;SDS011;790;47.000;16.084;2023-04-16T07:21:17;3.87;;;3.67;;
1593;SDS011;790;47.000;16.084;2023-04-16T07:23:46;4.43;;;3.57;;
1593;SDS011;790;47.000;16.084;2023-04-16T07:26:13;3.50;;;3.30;;
1593;SDS011;790;47.000;16.084;2023-04-16T07:28:40;3.80;;;3.50;;
1593;SDS011;790;47.000;16.084;2023-04-16T07:31:07;4.33;;;3.63;;
1593;SDS011;790;47.000;16.084;2023-04-16T07:33:35;4.17;;;3.87;;
1593;SDS011;790;47.000;16.084;2023-04-16T07:36:02;3.40;;;3.20;;
1593;SDS011;790;47.000;16.084;2023-04-16T07:38:29;3.73;;;3.43;;
1593;SDS011;790;47.000;16.084;2023-04-16T07:40:58;3.20;;;3.03;;
1593;SDS011;790;47.000;16.084;2023-04-16T07:43:25;3.43;;;3.23;;
1593;SDS011;790;47.000;16.084;2023-04-16T07:45:52;3.53;;;3.33;;
1593;SDS011;790;47.000;16.084;2023-04-16T07:48:20;3.80;;;3.50;;
1593;SDS011;790;47.000;16.084;2023-04-16T07:50:47;3.20;;;3.03;;
1593;SDS011;790;47.000;16.084;2023-04-16T07:53:15;3.60;;;3.40;;
1593;SDS011;790;47.000;16.084;2023-04-16T07:55:42;2.77;;;2.67;;
1593;SDS011;790;47.000;16.084;2023-04-16T07:58:11;3.10;;;2.90;;
1593;SDS011;790;47.000;16.084;2023-04-16T08:00:38;3.97;;;2.83;;
1593;SDS011;790;47.000;16.084;2023-04-16T08:03:05;3.47;;;2.80;;
1593;SDS011;790;47.000;16.084;2023-04-16T08:05:32;3.30;;;3.10;;
1593;SDS011;790;47.000;16.084;2023-04-16T08:07:59;2.93;;;2.77;;
1593;SDS011;790;47.000;16.084;2023-04-16T08:10:26;2.97;;;2.77;;
1593;SDS011;790;47.000;16.084;2023-04-16T08:12:54;2.67;;;2.57;;
1593;SDS011;790;47.000;16.084;2023-04-16T08:15:22;5.17;;;2.87;;
1593;SDS011;790;47.000;16.084;2023-04-16T08:17:49;2.73;;;2.63;;
1593;SDS011;790;47.000;16.084;2023-04-16T08:20:16;2.40;;;2.30;;
1593;SDS011;790;47.000;16.084;2023-04-16T08:22:43;2.70;;;2.60;;
1593;SDS011;790;47.000;16.084;2023-04-16T08:25:11;4.00;;;2.70;;
1593;SDS011;790;47.000;16.084;2023-04-16T08:27:38;2.60;;;2.50;;
1593;SDS011;790;47.000;16.084;2023-04-16T08:30:06;2.73;;;2.63;;
1593;SDS011;790;47.000;16.084;2023-04-16T08:32:36;4.33;;;2.20;;
1593;SDS011;790;47.000;16.084;2023-04-16T08:35:03;2.73;;;2.57;;
1593;SDS011;790;47.000;16.084;2023-04-16T08:37:30;3.30;;;3.00;;
1593;SDS011;790;47.000;16.084;2023-04-16T08:39:58;2.83;;;2.73;;
1593;SDS011;790;47.000;16.084;2023-04-16T08:42:28;3.00;;;2.90;;
1593;SDS011;790;47.000;16.084;2023-04-16T08:44:59;3.57;;;3.27;;
1593;SDS011;790;47.000;16.084;2023-04-16T08:47:34;3.20;;;2.90;;
1593;SDS011;790;47.000;16.084;2023-04-16T08:50:02;2.80;;;2.60;;
1593;SDS011;790;47.000;16.084;2023-04-16T08:52:30;3.00;;;2.80;;
1593;SDS011;790;47.000;16.084;2023-04-16T08:55:02;2.77;;;2.67;;
1593;SDS011;790;47.000;16.084;2023-04-16T08:57:35;3.17;;;2.97;;
1593;SDS011;790;47.000;16.084;2023-04-16T09:00:06;3.20;;;3.00;;
1593;SDS011;790;47.000;16.084;2023-04-16T09:02:36;3.13;;;2.93;;
1593;SDS011;790;47.000;16.084;2023-04-16T09:05:04;2.63;;;2.53;;
1593;SDS011;790;47.000;16.084;2023-04-16T09:07:34;2.53;;;2.33;;
1593;SDS011;790;47.000;16.084;2023-04-16T09:10:03;2.60;;;2.50;;
1593;SDS011;790;47.000;16.084;2023-04-16T09:12:33;2.60;;;2.50;;
1593;SDS011;790;47.000;16.084;2023-04-16T09:15:01;4.93;;;3.00;;
1593;SDS011;790;47.000;16.084;2023-04-16T09:17:29;2.67;;;2.57;;
1593;SDS011;790;47.000;16.084;2023-04-16T09:19:58;2.30;;;2.20;;
1593;SDS011;790;47.000;16.084;2023-04-16T09:22:25;3.17;;;2.67;;
1593;SDS011;790;47.000;16.084;2023-04-16T09:24:52;2.27;;;2.17;;
1593;SDS011;790;47.000;16.084;2023-04-16T09:27:19;2.13;;;2.03;;
1593;SDS011;790;47.000;16.084;2023-04-16T09:29:48;2.27;;;2.17;;
1593;SDS011;790;47.000;16.084;2023-04-16T09:32:15;2.03;;;1.70;;
1593;SDS011;790;47.000;16.084;2023-04-16T09:37:29;2.00;;;1.90;;
1593;SDS011;790;47.000;16.084;2023-04-16T09:39:58;2.07;;;1.87;;
1593;SDS011;790;47.000;16.084;2023-04-16T09:42:28;1.97;;;1.87;;
1593;SDS011;790;47.000;16.084;2023-04-16T09:44:56;1.60;;;1.60;;
1593;SDS011;790;47.000;16.084;2023-04-16T09:47:24;1.60;;;1.60;;
1593;SDS011;790;47.000;16.084;2023-04-16T09:49:52;1.77;;;1.67;;
1593;SDS011;790;47.000;16.084;2023-04-16T09:52:26;1.70;;;1.60;;
1593;SDS011;790;47.000;16.084;2023-04-16T09:54:53;2.63;;;2.43;;
1593;SDS011;790;47.000;16.084;2023-04-16T09:57:21;1.67;;;1.60;;
1593;SDS011;790;47.000;16.084;2023-04-16T09:59:51;1.80;;;1.70;;
1593;SDS011;790;47.000;16.084;2023-04-16T10:02:25;1.80;;;1.70;;
1593;SDS011;790;47.000;16.084;2023-04-16T10:04:53;1.40;;;1.40;;
1593;SDS011;790;47.000;16.084;2023-04-16T10:07:21;1.57;;;1.50;;
1593;SDS011;790;47.000;16.084;2023-04-16T10:09:54;1.80;;;1.70;;
1593;SDS011;790;47.000;16.084;2023-04-16T10:12:23;1.73;;;1.67;;
1593;SDS011;790;47.000;16.084;2023-04-16T10:14:51;1.67;;;1.57;;
1593;SDS011;790;47.000;16.084;2023-04-16T10:17:18;1.50;;;1.47;;
1593;SDS011;790;47.000;16.084;2023-04-16T10:19:46;1.50;;;1.50;;
1593;SDS011;790;47.000;16.084;2023-04-16T10:22:14;4.90;;;4.37;;
1593;SDS011;790;47.000;16.084;2023-04-16T10:24:41;1.37;;;1.37;;
1593;SDS011;790;47.000;16.084;2023-04-16T10:27:13;1.07;;;1.07;;
1593;SDS011;790;47.000;16.084;2023-04-16T10:29:40;0.90;;;0.90;;
1593;SDS011;790;47.000;16.084;2023-04-16T10:32:08;0.80;;;0.80;;
1593;SDS011;790;47.000;16.084;2023-04-16T10:34:37;0.90;;;0.90;;
1593;SDS011;790;47.000;16.084;2023-04-16T10:37:05;0.90;;;0.90;;
1593;SDS011;790;47.000;16.084;2023-04-16T10:39:34;1.57;;;1.57;;
1593;SDS011;790;47.000;16.084;2023-04-16T10:42:06;1.00;;;1.00;;
1593;SDS011;790;47.000;16.084;2023-04-16T10:44:36;0.90;;;0.90;;
1593;SDS011;790;47.000;16.084;2023-04-16T10:47:08;1.00;;;1.00;;
1593;SDS011;790;47.000;16.084;2023-04-16T10:49:38;1.00;;;1.00;;
1593;SDS011;790;47.000;16.084;2023-04-16T10:52:09;1.07;;;1.07;;
1593;SDS011;790;47.000;16.084;2023-04-16T10:54:38;0.90;;;0.90;;
1593;SDS011;790;47.000;16.084;2023-04-16T10:57:06;0.90;;;0.90;;
1593;SDS011;790;47.000;16.084;2023-04-16T10:59:36;1.10;;;1.10;;
1593;SDS011;790;47.000;16.084;2023-04-16T11:02:05;1.03;;;1.03;;
1593;SDS011;790;47.000;16.084;2023-04-16T11:04:35;1.30;;;1.30;;
1593;SDS011;790;47.000;16.084;2023-04-16T11:07:05;1.00;;;1.00;;
1593;SDS011;790;47.000;16.084;2023-04-16T11:09:46;1.13;;;1.13;;
1593;SDS011;790;47.000;16.084;2023-04-16T11:12:20;1.10;;;1.10;;
1593;SDS011;790;47.000;16.084;2023-04-16T11:14:53;1.00;;;1.00;;
1593;SDS011;790;47.000;16.084;2023-04-16T11:17:26;0.97;;;0.97;;
1593;SDS011;790;47.000;16.084;2023-04-16T11:19:54;1.00;;;1.00;;
1593;SDS011;790;47.000;16.084;2023-04-16T11:22:21;1.03;;;1.03;;
1593;SDS011;790;47.000;16.084;2023-04-16T11:24:52;1.00;;;1.00;;
1593;SDS011;790;47.000;16.084;2023-04-16T11:27:21;1.23;;;1.23;;
1593;SDS011;790;47.000;16.084;2023-04-16T11:29:57;1.10;;;1.10;;
1593;SDS011;790;47.000;16.084;2023-04-16T11:32:25;1.20;;;1.20;;
1593;SDS011;790;47.000;16.084;2023-04-16T11:34:52;1.20;;;1.20;;
1593;SDS011;790;47.000;16.084;2023-04-16T11:37:20;1.03;;;1.03;;
1593;SDS011;790;47.000;16.084;2023-04-16T11:39:57;1.00;;;1.00;;
1593;SDS011;790;47.000;16.084;2023-04-16T11:42:25;1.10;;;1.10;;
1593;SDS011;790;47.000;16.084;2023-04-16T11:44:54;1.00;;;1.00;;
1593;SDS011;790;47.000;16.084;2023-04-16T11:47:25;1.17;;;1.17;;
1593;SDS011;790;47.000;16.084;2023-04-16T11:49:53;1.00;;;1.00;;
1593;SDS011;790;47.000;16.084;2023-04-16T11:52:24;1.00;;;1.00;;
1593;SDS011;790;47.000;16.084;2023-04-16T11:54:52;0.90;;;0.90;;
1593;SDS011;790;47.000;16.084;2023-04-16T11:57:23;1.10;;;1.10;;
1593;SDS011;790;47.000;16.084;2023-04-16T11:59:51;1.23;;;1.23;;
1593;SDS011;790;47.000;16.084;2023-04-16T12:05:04;1.00;;;0.90;;
1593;SDS011;790;47.000;16.084;2023-04-16T12:07:42;1.00;;;1.00;;
1593;SDS011;790;47.000;16.084;2023-04-16T12:10:10;1.03;;;1.03;;
1593;SDS011;790;47.000;16.084;2023-04-16T12:12:37;1.10;;;1.10;;
1593;SDS011;790;47.000;16.084;2023-04-16T12:15:05;1.07;;;1.07;;
1593;SDS011;790;47.000;16.084;2023-04-16T12:17:33;1.20;;;1.20;;
1593;SDS011;790;47.000;16.084;2023-04-16T12:20:07;1.33;;;1.33;;
1593;SDS011;790;47.000;16.084;2023-04-16T12:22:35;1.10;;;1.10;;
1593;SDS011;790;47.000;16.084;2023-04-16T12:25:04;1.10;;;1.10;;
1593;SDS011;790;47.000;16.084;2023-04-16T12:27:42;1.20;;;1.20;;
1593;SDS011;790;47.000;16.084;2023-04-16T12:30:23;1.07;;;1.07;;
1593;SDS011;790;47.000;16.084;2023-04-16T12:35:41;1.10;;;1.10;;
1593;SDS011;790;47.000;16.084;2023-04-16T12:38:09;2.20;;;0.90;;
1593;SDS011;790;47.000;16.084;2023-04-16T12:40:39;1.40;;;1.10;;
1593;SDS011;790;47.000;16.084;2023-04-16T12:43:06;1.13;;;1.10;;
1593;SDS011;790;47.000;16.084;2023-04-16T12:45:34;0.97;;;0.97;;
1593;SDS011;790;47.000;16.084;2023-04-16T12:48:03;1.00;;;1.00;;
1593;SDS011;790;47.000;16.084;2023-04-16T12:50:32;1.00;;;1.00;;
1593;SDS011;790;47.000;16.084;2023-04-16T12:52:59;1.27;;;0.87;;
1593;SDS011;790;47.000;16.084;2023-04-16T12:55:26;1.00;;;1.00;;
1593;SDS011;790;47.000;16.084;2023-04-16T12:57:53;1.23;;;1.23;;
1593;SDS011;790;47.000;16.084;2023-04-16T13:00:21;1.30;;;1.30;;
1593;SDS011;790;47.000;16.084;2023-04-16T13:02:48;1.20;;;1.20;;
1593;SDS011;790;47.000;16.084;2023-04-16T13:05:15;1.63;;;1.60;;
1593;SDS011;790;47.000;16.084;2023-04-16T13:07:44;0.90;;;0.90;;
1593;SDS011;790;47.000;16.084;2023-04-16T13:10:12;1.50;;;1.50;;
1593;SDS011;790;47.000;16.084;2023-04-16T13:12:39;1.77;;;1.67;;
1593;SDS011;790;47.000;16.084;2023-04-16T13:15:07;1.27;;;1.27;;
1593;SDS011;790;47.000;16.084;2023-04-16T13:17:35;0.97;;;0.90;;
1593;SDS011;790;47.000;16.084;2023-04-16T13:20:02;1.87;;;1.77;;
1593;SDS011;790;47.000;16.084;2023-04-16T13:22:29;2.23;;;2.03;;
1593;SDS011;790;47.000;16.084;2023-04-16T13:24:58;1.60;;;1.50;;
1593;SDS011;790;47.000;16.084;2023-04-16T13:27:25;0.90;;;0.90;;
1593;SDS011;790;47.000;16.084;2023-04-16T13:29:53;1.00;;;1.00;;
1593;SDS011;790;47.000;16.084;2023-04-16T13:32:20;1.17;;;1.17;;
1593;SDS011;790;47.000;16.084;2023-04-16T13:34:48;0.80;;;0.80;;
1593;SDS011;790;47.000;16.084;2023-04-16T13:37:18;1.37;;;1.37;;
1593;SDS011;790;47.000;16.084;2023-04-16T13:39:45;1.40;;;1.30;;
1593;SDS011;790;47.000;16.084;2023-04-16T13:42:13;0.97;;;0.97;;
1593;SDS011;790;47.000;16.084;2023-04-16T13:44:41;1.43;;;1.43;;
1593;SDS011;790;47.000;16.084;2023-04-16T13:47:08;2.50;;;1.50;;
1593;SDS011;790;47.000;16.084;2023-04-16T13:49:35;1.50;;;1.40;;
1593;SDS011;790;47.000;16.084;2023-04-16T13:52:02;1.50;;;1.50;;
1593;SDS011;790;47.000;16.084;2023-04-16T13:54:30;2.17;;;2.07;;
1593;SDS011;790;47.000;16.084;2023-04-16T13:56:57;2.00;;;1.90;;
1593;SDS011;790;47.000;16.084;2023-04-16T13:59:29;1.97;;;1.87;;
1593;SDS011;790;47.000;16.084;2023-04-16T14:01:56;1.57;;;1.50;;
1593;SDS011;790;47.000;16.084;2023-04-16T14:04:24;2.87;;;2.67;;
1593;SDS011;790;47.000;16.084;2023-04-16T14:06:51;2.30;;;2.20;;
1593;SDS011;790;47.000;16.084;2023-04-16T14:09:18;2.00;;;1.90;;
1593;SDS011;790;47.000;16.084;2023-04-16T14:11:45;1.60;;;1.50;;
1593;SDS011;790;47.000;16.084;2023-04-16T14:14:12;1.70;;;1.60;;
1593;SDS011;790;47.000;16.084;2023-04-16T14:16:41;2.00;;;1.90;;
1593;SDS011;790;47.000;16.084;2023-04-16T14:19:08;1.87;;;1.77;;
1593;SDS011;790;47.000;16.084;2023-04-16T14:21:35;1.60;;;1.60;;
1593;SDS011;790;47.000;16.084;2023-04-16T14:24:03;2.27;;;1.63;;
1593;SDS011;790;47.000;16.084;2023-04-16T14:26:30;1.50;;;1.50;;
1593;SDS011;790;47.000;16.084;2023-04-16T14:28:57;1.30;;;1.30;;
1593;SDS011;790;47.000;16.084;2023-04-16T14:31:25;2.00;;;1.90;;
1593;SDS011;790;47.000;16.084;2023-04-16T14:33:53;1.80;;;1.70;;
1593;SDS011;790;47.000;16.084;2023-04-16T14:36:20;1.40;;;1.40;;
1593;SDS011;790;47.000;16.084;2023-04-16T14:38:49;1.70;;;1.40;;
1593;SDS011;790;47.000;16.084;2023-04-16T14:41:17;1.57;;;1.57;;
1593;SDS011;790;47.000;16.084;2023-04-16T14:43:44;1.27;;;1.27;;
1593;SDS011;790;47.000;16.084;2023-04-16T14:46:11;1.50;;;1.50;;
1593;SDS011;790;47.000;16.084;2023-04-16T14:48:41;1.23;;;1.20;;
1593;SDS011;790;47.000;16.084;2023-04-16T14:51:11;1.63;;;1.20;;
1593;SDS011;790;47.000;16.084;2023-04-16T14:53:38;1.43;;;1.40;;
1593;SDS011;790;47.000;16.084;2023-04-16T14:56:05;2.17;;;2.07;;
1593;SDS011;790;47.000;16.084;2023-04-16T14:58:32;1.40;;;1.30;;
1593;SDS011;790;47.000;16.084;2023-04-16T15:01:00;1.40;;;1.40;;
1593;SDS011;790;47.000;16.084;2023-04-16T15:03:28;1.70;;;1.60;;
1593;SDS011;790;47.000;16.084;2023-04-16T15:05:55;1.77;;;1.67;;
1593;SDS011;790;47.000;16.084;2023-04-16T15:08:24;1.80;;;1.70;;
1593;SDS011;790;47.000;16.084;2023-04-16T15:10:51;1.97;;;1.77;;
1593;SDS011;790;47.000;16.084;2023-04-16T15:13:18;1.67;;;1.60;;
1593;SDS011;790;47.000;16.084;2023-04-16T15:15:46;1.67;;;1.57;;
1593;SDS011;790;47.000;16.084;2023-04-16T15:18:13;1.50;;;1.50;;
1593;SDS011;790;47.000;16.084;2023-04-16T15:20:41;1.70;;;1.70;;
1593;SDS011;790;47.000;16.084;2023-04-16T15:23:08;1.40;;;1.40;;
1593;SDS011;790;47.000;16.084;2023-04-16T15:25:37;1.30;;;1.30;;
1593;SDS011;790;47.000;16.084;2023-04-16T15:28:04;1.70;;;1.60;;
1593;SDS011;790;47.000;16.084;2023-04-16T15:30:31;1.40;;;1.40;;